sensor_id;sensor_type;location;lat;lon;timestamp;P1;durP1;ratioP1;P2;durP2;ratioP2
59424;SDS011;45231;44.826;20.312;2022-12-20T00:00:47;31.47;;;16.10;;
59424;SDS011;45231;44.826;20.312;2022-12-20T00:03:13;27.60;;;13.75;;
59424;SDS011;45231;44.826;20.312;2022-12-20T00:05:39;32.20;;;15.30;;
59424;SDS011;45231;44.826;20.312;2022-12-20T00:08:06;20.33;;;10.90;;
59424;SDS011;45231;44.826;20.312;2022-12-20T00:10:36;26.52;;;13.10;;
59424;SDS011;45231;44.826;20.312;2022-12-20T00:13:02;29.30;;;15.27;;
59424;SDS011;45231;44.826;20.312;2022-12-20T00:17:56;29.88;;;13.57;;
59424;SDS011;45231;44.826;20.312;2022-12-20T00:20:22;32.25;;;16.10;;
59424;SDS011;45231;44.826;20.312;2022-12-20T00:22:48;34.40;;;16.13;;
59424;SDS011;45231;44.826;20.312;2022-12-20T00:25:18;33.80;;;16.83;;
59424;SDS011;45231;44.826;20.312;2022-12-20T00:27:45;29.48;;;14.13;;
59424;SDS011;45231;44.826;20.312;2022-12-20T00:32:41;31.55;;;14.55;;
59424;SDS011;45231;44.826;20.312;2022-12-20T00:35:07;29.17;;;14.70;;
59424;SDS011;45231;44.826;20.312;2022-12-20T00:37:33;33.40;;;15.50;;
59424;SDS011;45231;44.826;20.312;2022-12-20T00:40:00;32.73;;;15.93;;
59424;SDS011;45231;44.826;20.312;2022-12-20T00:42:26;30.70;;;15.73;;
59424;SDS011;45231;44.826;20.312;2022-12-20T00:44:52;31.02;;;15.30;;
59424;SDS011;45231;44.826;20.312;2022-12-20T00:47:18;27.27;;;14.70;;
59424;SDS011;45231;44.826;20.312;2022-12-20T00:49:45;29.45;;;15.38;;
59424;SDS011;45231;44.826;20.312;2022-12-20T00:52:11;33.50;;;16.43;;
59424;SDS011;45231;44.826;20.312;2022-12-20T00:54:37;28.43;;;15.57;;
59424;SDS011;45231;44.826;20.312;2022-12-20T00:57:03;34.35;;;17.10;;
59424;SDS011;45231;44.826;20.312;2022-12-20T00:59:29;32.57;;;15.40;;
59424;SDS011;45231;44.826;20.312;2022-12-20T01:01:56;33.38;;;16.60;;
59424;SDS011;45231;44.826;20.312;2022-12-20T01:04:22;32.23;;;16.53;;
59424;SDS011;45231;44.826;20.312;2022-12-20T01:06:48;34.43;;;16.67;;
59424;SDS011;45231;44.826;20.312;2022-12-20T01:09:14;25.10;;;13.60;;
59424;SDS011;45231;44.826;20.312;2022-12-20T01:11:41;24.65;;;12.48;;
59424;SDS011;45231;44.826;20.312;2022-12-20T01:14:11;27.73;;;13.07;;
59424;SDS011;45231;44.826;20.312;2022-12-20T01:16:42;23.83;;;10.82;;
59424;SDS011;45231;44.826;20.312;2022-12-20T01:19:09;23.00;;;12.25;;
59424;SDS011;45231;44.826;20.312;2022-12-20T01:21:39;20.55;;;9.13;;
59424;SDS011;45231;44.826;20.312;2022-12-20T01:24:17;24.88;;;13.35;;
59424;SDS011;45231;44.826;20.312;2022-12-20T01:26:44;21.30;;;11.25;;
59424;SDS011;45231;44.826;20.312;2022-12-20T01:29:11;25.33;;;13.23;;
59424;SDS011;45231;44.826;20.312;2022-12-20T01:34:04;22.13;;;12.15;;
59424;SDS011;45231;44.826;20.312;2022-12-20T01:36:32;20.60;;;9.68;;
59424;SDS011;45231;44.826;20.312;2022-12-20T01:39:03;23.80;;;12.55;;
59424;SDS011;45231;44.826;20.312;2022-12-20T01:41:29;22.83;;;11.52;;
59424;SDS011;45231;44.826;20.312;2022-12-20T01:44:00;21.65;;;10.73;;
59424;SDS011;45231;44.826;20.312;2022-12-20T01:46:27;18.38;;;9.52;;
59424;SDS011;45231;44.826;20.312;2022-12-20T01:49:04;22.23;;;10.68;;
59424;SDS011;45231;44.826;20.312;2022-12-20T01:51:35;23.65;;;11.32;;
59424;SDS011;45231;44.826;20.312;2022-12-20T01:54:04;21.65;;;10.68;;
59424;SDS011;45231;44.826;20.312;2022-12-20T01:56:32;23.08;;;9.15;;
59424;SDS011;45231;44.826;20.312;2022-12-20T01:58:59;21.48;;;10.60;;
59424;SDS011;45231;44.826;20.312;2022-12-20T02:01:26;22.00;;;9.68;;
59424;SDS011;45231;44.826;20.312;2022-12-20T02:03:52;22.88;;;10.20;;
59424;SDS011;45231;44.826;20.312;2022-12-20T02:06:21;21.23;;;11.05;;
59424;SDS011;45231;44.826;20.312;2022-12-20T02:08:48;21.08;;;10.52;;
59424;SDS011;45231;44.826;20.312;2022-12-20T02:16:24;25.02;;;12.43;;
59424;SDS011;45231;44.826;20.312;2022-12-20T02:18:52;24.15;;;12.30;;
59424;SDS011;45231;44.826;20.312;2022-12-20T02:21:21;26.38;;;12.43;;
59424;SDS011;45231;44.826;20.312;2022-12-20T02:26:44;22.33;;;11.23;;
59424;SDS011;45231;44.826;20.312;2022-12-20T02:29:29;19.50;;;11.27;;
59424;SDS011;45231;44.826;20.312;2022-12-20T02:32:21;24.85;;;10.93;;
59424;SDS011;45231;44.826;20.312;2022-12-20T02:34:50;26.08;;;12.65;;
59424;SDS011;45231;44.826;20.312;2022-12-20T02:37:17;23.58;;;10.55;;
59424;SDS011;45231;44.826;20.312;2022-12-20T02:39:43;24.65;;;11.98;;
59424;SDS011;45231;44.826;20.312;2022-12-20T02:42:19;23.45;;;11.88;;
59424;SDS011;45231;44.826;20.312;2022-12-20T02:44:51;23.60;;;11.13;;
59424;SDS011;45231;44.826;20.312;2022-12-20T02:47:41;22.75;;;11.05;;
59424;SDS011;45231;44.826;20.312;2022-12-20T02:50:10;23.60;;;11.45;;
59424;SDS011;45231;44.826;20.312;2022-12-20T02:52:37;24.42;;;12.18;;
59424;SDS011;45231;44.826;20.312;2022-12-20T02:55:04;17.83;;;8.93;;
59424;SDS011;45231;44.826;20.312;2022-12-20T03:00:02;25.30;;;11.02;;
59424;SDS011;45231;44.826;20.312;2022-12-20T03:02:29;20.50;;;10.70;;
59424;SDS011;45231;44.826;20.312;2022-12-20T03:05:21;23.48;;;11.98;;
59424;SDS011;45231;44.826;20.312;2022-12-20T03:07:47;22.63;;;11.93;;
59424;SDS011;45231;44.826;20.312;2022-12-20T03:10:14;21.83;;;11.82;;
59424;SDS011;45231;44.826;20.312;2022-12-20T03:12:40;21.77;;;9.75;;
59424;SDS011;45231;44.826;20.312;2022-12-20T03:15:06;24.20;;;11.70;;
59424;SDS011;45231;44.826;20.312;2022-12-20T03:17:33;21.48;;;11.15;;
59424;SDS011;45231;44.826;20.312;2022-12-20T03:20:00;25.48;;;12.20;;
59424;SDS011;45231;44.826;20.312;2022-12-20T03:22:26;20.05;;;8.77;;
59424;SDS011;45231;44.826;20.312;2022-12-20T03:24:52;20.43;;;11.00;;
59424;SDS011;45231;44.826;20.312;2022-12-20T03:27:18;23.55;;;11.13;;
59424;SDS011;45231;44.826;20.312;2022-12-20T03:29:44;18.03;;;8.90;;
59424;SDS011;45231;44.826;20.312;2022-12-20T03:32:11;20.42;;;9.23;;
59424;SDS011;45231;44.826;20.312;2022-12-20T03:34:37;26.52;;;11.00;;
59424;SDS011;45231;44.826;20.312;2022-12-20T03:37:03;25.73;;;11.50;;
59424;SDS011;45231;44.826;20.312;2022-12-20T03:39:30;21.25;;;11.68;;
59424;SDS011;45231;44.826;20.312;2022-12-20T03:42:04;21.08;;;9.93;;
59424;SDS011;45231;44.826;20.312;2022-12-20T03:44:30;18.08;;;9.23;;
59424;SDS011;45231;44.826;20.312;2022-12-20T03:46:56;18.35;;;8.70;;
59424;SDS011;45231;44.826;20.312;2022-12-20T03:49:26;22.38;;;10.95;;
59424;SDS011;45231;44.826;20.312;2022-12-20T03:51:52;20.85;;;10.88;;
59424;SDS011;45231;44.826;20.312;2022-12-20T03:54:19;17.75;;;8.23;;
59424;SDS011;45231;44.826;20.312;2022-12-20T03:56:48;20.05;;;8.88;;
59424;SDS011;45231;44.826;20.312;2022-12-20T03:59:20;20.20;;;8.68;;
59424;SDS011;45231;44.826;20.312;2022-12-20T04:01:47;19.90;;;9.70;;
59424;SDS011;45231;44.826;20.312;2022-12-20T04:04:13;21.50;;;9.43;;
59424;SDS011;45231;44.826;20.312;2022-12-20T04:06:40;22.75;;;11.35;;
59424;SDS011;45231;44.826;20.312;2022-12-20T04:09:09;18.10;;;7.78;;
59424;SDS011;45231;44.826;20.312;2022-12-20T04:11:38;17.88;;;8.85;;
59424;SDS011;45231;44.826;20.312;2022-12-20T04:14:08;21.10;;;10.63;;
59424;SDS011;45231;44.826;20.312;2022-12-20T04:16:37;19.08;;;9.75;;
59424;SDS011;45231;44.826;20.312;2022-12-20T04:19:03;22.75;;;11.55;;
59424;SDS011;45231;44.826;20.312;2022-12-20T04:21:30;21.10;;;11.37;;
59424;SDS011;45231;44.826;20.312;2022-12-20T04:23:58;20.52;;;9.52;;
59424;SDS011;45231;44.826;20.312;2022-12-20T04:26:24;23.55;;;11.05;;
59424;SDS011;45231;44.826;20.312;2022-12-20T04:28:50;20.27;;;9.95;;
59424;SDS011;45231;44.826;20.312;2022-12-20T04:31:17;23.33;;;12.38;;
59424;SDS011;45231;44.826;20.312;2022-12-20T04:33:43;19.95;;;10.82;;
59424;SDS011;45231;44.826;20.312;2022-12-20T04:36:10;23.50;;;10.45;;
59424;SDS011;45231;44.826;20.312;2022-12-20T04:38:36;23.87;;;11.63;;
59424;SDS011;45231;44.826;20.312;2022-12-20T04:41:02;23.73;;;10.98;;
59424;SDS011;45231;44.826;20.312;2022-12-20T04:43:29;18.17;;;9.00;;
59424;SDS011;45231;44.826;20.312;2022-12-20T04:45:55;19.52;;;9.10;;
59424;SDS011;45231;44.826;20.312;2022-12-20T04:48:25;18.45;;;8.23;;
59424;SDS011;45231;44.826;20.312;2022-12-20T04:50:52;18.02;;;9.30;;
59424;SDS011;45231;44.826;20.312;2022-12-20T04:53:18;20.00;;;9.05;;
59424;SDS011;45231;44.826;20.312;2022-12-20T04:56:03;20.23;;;10.20;;
59424;SDS011;45231;44.826;20.312;2022-12-20T04:58:30;25.25;;;11.02;;
59424;SDS011;45231;44.826;20.312;2022-12-20T05:00:56;20.05;;;10.50;;
59424;SDS011;45231;44.826;20.312;2022-12-20T05:03:23;22.50;;;10.83;;
59424;SDS011;45231;44.826;20.312;2022-12-20T05:08:16;23.33;;;11.32;;
59424;SDS011;45231;44.826;20.312;2022-12-20T05:10:51;19.92;;;10.15;;
59424;SDS011;45231;44.826;20.312;2022-12-20T05:13:17;22.73;;;11.23;;
59424;SDS011;45231;44.826;20.312;2022-12-20T05:15:44;23.20;;;11.52;;
59424;SDS011;45231;44.826;20.312;2022-12-20T05:18:10;23.63;;;12.05;;
59424;SDS011;45231;44.826;20.312;2022-12-20T05:20:36;19.63;;;9.73;;
59424;SDS011;45231;44.826;20.312;2022-12-20T05:23:03;22.38;;;11.45;;
59424;SDS011;45231;44.826;20.312;2022-12-20T05:25:48;23.30;;;10.73;;
59424;SDS011;45231;44.826;20.312;2022-12-20T05:28:33;22.50;;;11.20;;
59424;SDS011;45231;44.826;20.312;2022-12-20T05:31:00;19.33;;;10.43;;
59424;SDS011;45231;44.826;20.312;2022-12-20T05:33:27;22.25;;;10.30;;
59424;SDS011;45231;44.826;20.312;2022-12-20T05:35:53;25.02;;;11.43;;
59424;SDS011;45231;44.826;20.312;2022-12-20T05:38:35;21.92;;;10.52;;
59424;SDS011;45231;44.826;20.312;2022-12-20T05:41:01;25.63;;;12.10;;
59424;SDS011;45231;44.826;20.312;2022-12-20T05:43:30;20.48;;;11.18;;
59424;SDS011;45231;44.826;20.312;2022-12-20T05:45:56;22.65;;;11.30;;
59424;SDS011;45231;44.826;20.312;2022-12-20T05:48:22;23.33;;;10.80;;
59424;SDS011;45231;44.826;20.312;2022-12-20T05:50:51;22.60;;;10.83;;
59424;SDS011;45231;44.826;20.312;2022-12-20T05:53:18;22.60;;;10.85;;
59424;SDS011;45231;44.826;20.312;2022-12-20T05:55:46;29.73;;;13.00;;
59424;SDS011;45231;44.826;20.312;2022-12-20T05:58:13;21.63;;;9.98;;
59424;SDS011;45231;44.826;20.312;2022-12-20T06:00:39;19.98;;;10.73;;
59424;SDS011;45231;44.826;20.312;2022-12-20T06:03:06;25.17;;;12.38;;
59424;SDS011;45231;44.826;20.312;2022-12-20T06:05:33;19.95;;;9.18;;
59424;SDS011;45231;44.826;20.312;2022-12-20T06:08:00;21.52;;;10.68;;
59424;SDS011;45231;44.826;20.312;2022-12-20T06:10:27;22.40;;;11.30;;
59424;SDS011;45231;44.826;20.312;2022-12-20T06:12:53;27.35;;;12.45;;
59424;SDS011;45231;44.826;20.312;2022-12-20T06:15:19;21.63;;;11.53;;
59424;SDS011;45231;44.826;20.312;2022-12-20T06:17:45;25.80;;;11.15;;
59424;SDS011;45231;44.826;20.312;2022-12-20T06:20:12;20.27;;;9.93;;
59424;SDS011;45231;44.826;20.312;2022-12-20T06:22:58;23.00;;;11.07;;
59424;SDS011;45231;44.826;20.312;2022-12-20T06:25:24;22.73;;;11.45;;
59424;SDS011;45231;44.826;20.312;2022-12-20T06:27:51;22.17;;;9.60;;
59424;SDS011;45231;44.826;20.312;2022-12-20T06:30:17;23.00;;;11.32;;
59424;SDS011;45231;44.826;20.312;2022-12-20T06:32:44;25.15;;;12.40;;
59424;SDS011;45231;44.826;20.312;2022-12-20T06:35:10;25.70;;;12.57;;
59424;SDS011;45231;44.826;20.312;2022-12-20T06:37:36;29.45;;;13.27;;
59424;SDS011;45231;44.826;20.312;2022-12-20T06:40:09;22.92;;;12.25;;
59424;SDS011;45231;44.826;20.312;2022-12-20T06:42:36;28.17;;;13.90;;
59424;SDS011;45231;44.826;20.312;2022-12-20T06:45:03;28.60;;;13.00;;
59424;SDS011;45231;44.826;20.312;2022-12-20T06:47:29;24.50;;;12.40;;
59424;SDS011;45231;44.826;20.312;2022-12-20T06:49:55;23.73;;;12.10;;
59424;SDS011;45231;44.826;20.312;2022-12-20T06:52:22;21.87;;;9.67;;
59424;SDS011;45231;44.826;20.312;2022-12-20T06:54:48;23.58;;;12.50;;
59424;SDS011;45231;44.826;20.312;2022-12-20T06:57:15;33.87;;;17.53;;
59424;SDS011;45231;44.826;20.312;2022-12-20T06:59:41;28.77;;;15.48;;
59424;SDS011;45231;44.826;20.312;2022-12-20T07:02:11;30.65;;;15.23;;
59424;SDS011;45231;44.826;20.312;2022-12-20T07:04:37;24.92;;;11.93;;
59424;SDS011;45231;44.826;20.312;2022-12-20T07:07:03;26.98;;;14.93;;
59424;SDS011;45231;44.826;20.312;2022-12-20T07:09:29;23.83;;;14.63;;
59424;SDS011;45231;44.826;20.312;2022-12-20T07:11:55;24.73;;;13.43;;
59424;SDS011;45231;44.826;20.312;2022-12-20T07:14:21;25.80;;;14.27;;
59424;SDS011;45231;44.826;20.312;2022-12-20T07:16:48;25.03;;;13.00;;
59424;SDS011;45231;44.826;20.312;2022-12-20T07:19:14;23.17;;;13.17;;
59424;SDS011;45231;44.826;20.312;2022-12-20T07:21:40;26.00;;;14.75;;
59424;SDS011;45231;44.826;20.312;2022-12-20T07:24:07;24.35;;;14.63;;
59424;SDS011;45231;44.826;20.312;2022-12-20T07:26:33;23.52;;;14.40;;
59424;SDS011;45231;44.826;20.312;2022-12-20T07:28:59;30.90;;;13.57;;
59424;SDS011;45231;44.826;20.312;2022-12-20T07:31:25;21.60;;;13.60;;
59424;SDS011;45231;44.826;20.312;2022-12-20T07:33:51;22.13;;;13.50;;
59424;SDS011;45231;44.826;20.312;2022-12-20T07:36:17;21.37;;;13.37;;
59424;SDS011;45231;44.826;20.312;2022-12-20T07:38:44;21.93;;;12.10;;
59424;SDS011;45231;44.826;20.312;2022-12-20T07:41:11;23.20;;;13.97;;
59424;SDS011;45231;44.826;20.312;2022-12-20T07:43:37;23.13;;;13.30;;
59424;SDS011;45231;44.826;20.312;2022-12-20T07:46:04;22.40;;;13.63;;
59424;SDS011;45231;44.826;20.312;2022-12-20T07:48:30;21.60;;;13.13;;
59424;SDS011;45231;44.826;20.312;2022-12-20T07:50:58;23.73;;;14.93;;
59424;SDS011;45231;44.826;20.312;2022-12-20T07:53:26;22.83;;;12.95;;
59424;SDS011;45231;44.826;20.312;2022-12-20T07:55:53;22.65;;;14.18;;
59424;SDS011;45231;44.826;20.312;2022-12-20T08:00:46;19.10;;;11.85;;
59424;SDS011;45231;44.826;20.312;2022-12-20T08:03:16;20.95;;;13.43;;
59424;SDS011;45231;44.826;20.312;2022-12-20T08:05:45;21.02;;;13.10;;
59424;SDS011;45231;44.826;20.312;2022-12-20T08:08:12;24.38;;;14.65;;
59424;SDS011;45231;44.826;20.312;2022-12-20T08:10:38;22.67;;;13.05;;
59424;SDS011;45231;44.826;20.312;2022-12-20T08:13:05;24.52;;;14.85;;
59424;SDS011;45231;44.826;20.312;2022-12-20T08:15:32;22.88;;;13.00;;
59424;SDS011;45231;44.826;20.312;2022-12-20T08:17:58;22.98;;;13.55;;
59424;SDS011;45231;44.826;20.312;2022-12-20T08:20:25;21.88;;;12.60;;
59424;SDS011;45231;44.826;20.312;2022-12-20T08:22:51;26.02;;;13.57;;
59424;SDS011;45231;44.826;20.312;2022-12-20T08:25:17;22.23;;;14.03;;
59424;SDS011;45231;44.826;20.312;2022-12-20T08:27:45;23.60;;;14.55;;
59424;SDS011;45231;44.826;20.312;2022-12-20T08:30:11;23.77;;;13.73;;
59424;SDS011;45231;44.826;20.312;2022-12-20T08:32:37;25.35;;;13.70;;
59424;SDS011;45231;44.826;20.312;2022-12-20T08:35:04;24.03;;;15.03;;
59424;SDS011;45231;44.826;20.312;2022-12-20T08:39:56;25.83;;;15.05;;
59424;SDS011;45231;44.826;20.312;2022-12-20T08:42:22;22.83;;;14.00;;
59424;SDS011;45231;44.826;20.312;2022-12-20T08:44:48;22.20;;;13.70;;
59424;SDS011;45231;44.826;20.312;2022-12-20T08:47:15;19.60;;;12.88;;
59424;SDS011;45231;44.826;20.312;2022-12-20T08:49:41;24.37;;;14.13;;
59424;SDS011;45231;44.826;20.312;2022-12-20T08:52:07;23.27;;;14.37;;
59424;SDS011;45231;44.826;20.312;2022-12-20T08:54:33;23.48;;;13.48;;
59424;SDS011;45231;44.826;20.312;2022-12-20T08:56:59;21.50;;;14.00;;
59424;SDS011;45231;44.826;20.312;2022-12-20T08:59:25;21.33;;;12.63;;
59424;SDS011;45231;44.826;20.312;2022-12-20T09:01:51;22.43;;;13.33;;
59424;SDS011;45231;44.826;20.312;2022-12-20T09:04:19;21.20;;;13.00;;
59424;SDS011;45231;44.826;20.312;2022-12-20T09:06:45;20.52;;;12.32;;
59424;SDS011;45231;44.826;20.312;2022-12-20T09:09:11;21.33;;;12.88;;
59424;SDS011;45231;44.826;20.312;2022-12-20T09:11:37;19.27;;;12.23;;
59424;SDS011;45231;44.826;20.312;2022-12-20T09:14:03;22.60;;;12.10;;
59424;SDS011;45231;44.826;20.312;2022-12-20T09:16:30;20.73;;;12.77;;
59424;SDS011;45231;44.826;20.312;2022-12-20T09:18:57;21.30;;;13.18;;
59424;SDS011;45231;44.826;20.312;2022-12-20T09:21:23;21.20;;;12.77;;
59424;SDS011;45231;44.826;20.312;2022-12-20T09:23:50;20.47;;;11.83;;
59424;SDS011;45231;44.826;20.312;2022-12-20T09:26:16;16.42;;;9.90;;
59424;SDS011;45231;44.826;20.312;2022-12-20T09:31:13;21.35;;;13.13;;
59424;SDS011;45231;44.826;20.312;2022-12-20T09:33:39;24.35;;;14.35;;
59424;SDS011;45231;44.826;20.312;2022-12-20T09:36:06;20.30;;;12.27;;
59424;SDS011;45231;44.826;20.312;2022-12-20T09:38:35;25.27;;;14.10;;
59424;SDS011;45231;44.826;20.312;2022-12-20T09:41:02;24.00;;;14.60;;
59424;SDS011;45231;44.826;20.312;2022-12-20T09:43:29;22.23;;;13.77;;
59424;SDS011;45231;44.826;20.312;2022-12-20T09:45:57;20.75;;;12.75;;
59424;SDS011;45231;44.826;20.312;2022-12-20T09:48:25;24.38;;;13.50;;
59424;SDS011;45231;44.826;20.312;2022-12-20T09:56:21;21.02;;;13.13;;
59424;SDS011;45231;44.826;20.312;2022-12-20T10:01:19;22.93;;;13.83;;
59424;SDS011;45231;44.826;20.312;2022-12-20T10:03:46;25.73;;;14.95;;
59424;SDS011;45231;44.826;20.312;2022-12-20T10:09:01;21.63;;;12.75;;
59424;SDS011;45231;44.826;20.312;2022-12-20T10:17:22;25.48;;;12.93;;
59424;SDS011;45231;44.826;20.312;2022-12-20T10:20:11;24.08;;;13.52;;
59424;SDS011;45231;44.826;20.312;2022-12-20T10:22:47;22.33;;;13.45;;
59424;SDS011;45231;44.826;20.312;2022-12-20T10:25:17;23.70;;;13.80;;
59424;SDS011;45231;44.826;20.312;2022-12-20T10:27:45;22.40;;;12.68;;
59424;SDS011;45231;44.826;20.312;2022-12-20T10:30:15;21.08;;;12.00;;
59424;SDS011;45231;44.826;20.312;2022-12-20T10:32:43;22.15;;;13.05;;
59424;SDS011;45231;44.826;20.312;2022-12-20T10:37:36;21.33;;;12.57;;
59424;SDS011;45231;44.826;20.312;2022-12-20T10:40:03;21.25;;;12.27;;
59424;SDS011;45231;44.826;20.312;2022-12-20T10:42:39;21.65;;;12.57;;
59424;SDS011;45231;44.826;20.312;2022-12-20T10:45:25;22.08;;;13.13;;
59424;SDS011;45231;44.826;20.312;2022-12-20T10:47:56;23.23;;;13.23;;
59424;SDS011;45231;44.826;20.312;2022-12-20T10:50:23;23.67;;;12.43;;
59424;SDS011;45231;44.826;20.312;2022-12-20T10:53:11;22.77;;;14.02;;
59424;SDS011;45231;44.826;20.312;2022-12-20T10:55:41;23.55;;;13.05;;
59424;SDS011;45231;44.826;20.312;2022-12-20T11:00:40;19.33;;;11.23;;
59424;SDS011;45231;44.826;20.312;2022-12-20T11:05:32;23.10;;;12.47;;
59424;SDS011;45231;44.826;20.312;2022-12-20T11:08:06;20.98;;;12.25;;
59424;SDS011;45231;44.826;20.312;2022-12-20T11:10:34;25.40;;;14.55;;
59424;SDS011;45231;44.826;20.312;2022-12-20T11:13:01;22.33;;;12.80;;
59424;SDS011;45231;44.826;20.312;2022-12-20T11:18:12;28.00;;;14.50;;
59424;SDS011;45231;44.826;20.312;2022-12-20T11:20:45;27.85;;;14.50;;
59424;SDS011;45231;44.826;20.312;2022-12-20T11:23:24;22.42;;;12.57;;
59424;SDS011;45231;44.826;20.312;2022-12-20T11:35:40;26.15;;;13.23;;
59424;SDS011;45231;44.826;20.312;2022-12-20T11:48:30;27.02;;;15.15;;
59424;SDS011;45231;44.826;20.312;2022-12-20T11:51:03;25.55;;;14.40;;
59424;SDS011;45231;44.826;20.312;2022-12-20T11:53:42;30.08;;;13.18;;
59424;SDS011;45231;44.826;20.312;2022-12-20T11:56:56;25.13;;;12.77;;
59424;SDS011;45231;44.826;20.312;2022-12-20T11:59:01;21.40;;;11.85;;
59424;SDS011;45231;44.826;20.312;2022-12-20T12:01:37;26.10;;;13.43;;
59424;SDS011;45231;44.826;20.312;2022-12-20T12:04:18;22.92;;;12.23;;
59424;SDS011;45231;44.826;20.312;2022-12-20T12:06:47;23.83;;;13.65;;
59424;SDS011;45231;44.826;20.312;2022-12-20T12:17:34;24.90;;;13.07;;
59424;SDS011;45231;44.826;20.312;2022-12-20T12:19:59;23.05;;;13.00;;
59424;SDS011;45231;44.826;20.312;2022-12-20T12:22:28;22.60;;;12.40;;
59424;SDS011;45231;44.826;20.312;2022-12-20T12:24:57;24.08;;;13.18;;
59424;SDS011;45231;44.826;20.312;2022-12-20T12:27:25;23.88;;;13.68;;
59424;SDS011;45231;44.826;20.312;2022-12-20T12:29:56;23.58;;;12.70;;
59424;SDS011;45231;44.826;20.312;2022-12-20T12:35:04;23.27;;;12.77;;
59424;SDS011;45231;44.826;20.312;2022-12-20T12:43:04;24.42;;;13.20;;
59424;SDS011;45231;44.826;20.312;2022-12-20T12:45:39;22.90;;;10.52;;
59424;SDS011;45231;44.826;20.312;2022-12-20T12:48:10;27.90;;;12.65;;
59424;SDS011;45231;44.826;20.312;2022-12-20T12:50:41;24.38;;;13.00;;
59424;SDS011;45231;44.826;20.312;2022-12-20T12:53:20;25.48;;;12.52;;
59424;SDS011;45231;44.826;20.312;2022-12-20T12:55:50;23.98;;;12.32;;
59424;SDS011;45231;44.826;20.312;2022-12-20T13:00:59;23.75;;;12.80;;
59424;SDS011;45231;44.826;20.312;2022-12-20T13:03:37;21.70;;;12.35;;
59424;SDS011;45231;44.826;20.312;2022-12-20T13:09:08;25.95;;;12.90;;
59424;SDS011;45231;44.826;20.312;2022-12-20T13:16:54;27.75;;;12.98;;
59424;SDS011;45231;44.826;20.312;2022-12-20T13:19:47;21.08;;;12.60;;
59424;SDS011;45231;44.826;20.312;2022-12-20T13:22:20;23.20;;;10.30;;
59424;SDS011;45231;44.826;20.312;2022-12-20T13:24:57;20.48;;;11.32;;
59424;SDS011;45231;44.826;20.312;2022-12-20T13:27:36;21.55;;;12.23;;
59424;SDS011;45231;44.826;20.312;2022-12-20T13:35:27;23.48;;;12.27;;
59424;SDS011;45231;44.826;20.312;2022-12-20T13:40:41;21.65;;;11.75;;
59424;SDS011;45231;44.826;20.312;2022-12-20T13:43:14;22.05;;;11.40;;
59424;SDS011;45231;44.826;20.312;2022-12-20T13:46:04;22.00;;;12.25;;
59424;SDS011;45231;44.826;20.312;2022-12-20T13:51:04;19.08;;;11.02;;
59424;SDS011;45231;44.826;20.312;2022-12-20T13:53:31;21.63;;;12.25;;
59424;SDS011;45231;44.826;20.312;2022-12-20T13:55:58;23.67;;;13.18;;
59424;SDS011;45231;44.826;20.312;2022-12-20T13:58:44;26.25;;;12.55;;
59424;SDS011;45231;44.826;20.312;2022-12-20T14:03:40;24.63;;;13.98;;
59424;SDS011;45231;44.826;20.312;2022-12-20T14:06:10;23.17;;;13.52;;
59424;SDS011;45231;44.826;20.312;2022-12-20T14:08:39;25.20;;;14.15;;
59424;SDS011;45231;44.826;20.312;2022-12-20T14:11:17;22.95;;;11.65;;
59424;SDS011;45231;44.826;20.312;2022-12-20T14:13:53;29.98;;;13.27;;
59424;SDS011;45231;44.826;20.312;2022-12-20T14:16:21;25.05;;;13.70;;
59424;SDS011;45231;44.826;20.312;2022-12-20T14:21:13;26.38;;;13.75;;
59424;SDS011;45231;44.826;20.312;2022-12-20T14:23:41;22.33;;;12.00;;
59424;SDS011;45231;44.826;20.312;2022-12-20T14:26:10;24.50;;;14.57;;
59424;SDS011;45231;44.826;20.312;2022-12-20T14:28:46;25.27;;;14.75;;
59424;SDS011;45231;44.826;20.312;2022-12-20T14:34:04;24.60;;;12.98;;
59424;SDS011;45231;44.826;20.312;2022-12-20T14:36:31;25.90;;;14.20;;
59424;SDS011;45231;44.826;20.312;2022-12-20T14:38:58;26.80;;;15.52;;
59424;SDS011;45231;44.826;20.312;2022-12-20T14:41:35;35.72;;;15.35;;
59424;SDS011;45231;44.826;20.312;2022-12-20T14:44:03;23.00;;;13.30;;
59424;SDS011;45231;44.826;20.312;2022-12-20T14:46:37;28.42;;;15.93;;
59424;SDS011;45231;44.826;20.312;2022-12-20T14:49:14;28.35;;;14.75;;
59424;SDS011;45231;44.826;20.312;2022-12-20T14:51:43;23.88;;;13.13;;
59424;SDS011;45231;44.826;20.312;2022-12-20T14:54:12;25.63;;;14.75;;
59424;SDS011;45231;44.826;20.312;2022-12-20T14:56:43;28.27;;;15.02;;
59424;SDS011;45231;44.826;20.312;2022-12-20T14:59:14;30.67;;;16.42;;
59424;SDS011;45231;44.826;20.312;2022-12-20T15:01:41;27.70;;;16.00;;
59424;SDS011;45231;44.826;20.312;2022-12-20T15:04:21;29.20;;;15.75;;
59424;SDS011;45231;44.826;20.312;2022-12-20T15:06:47;28.92;;;15.18;;
59424;SDS011;45231;44.826;20.312;2022-12-20T15:09:14;28.40;;;15.20;;
59424;SDS011;45231;44.826;20.312;2022-12-20T15:11:41;31.30;;;18.10;;
59424;SDS011;45231;44.826;20.312;2022-12-20T15:16:47;36.33;;;19.05;;
59424;SDS011;45231;44.826;20.312;2022-12-20T15:19:14;41.72;;;18.75;;
59424;SDS011;45231;44.826;20.312;2022-12-20T15:21:40;38.57;;;20.10;;
59424;SDS011;45231;44.826;20.312;2022-12-20T15:24:14;38.72;;;20.30;;
59424;SDS011;45231;44.826;20.312;2022-12-20T15:26:42;32.30;;;18.42;;
59424;SDS011;45231;44.826;20.312;2022-12-20T15:29:15;35.10;;;18.08;;
59424;SDS011;45231;44.826;20.312;2022-12-20T15:31:42;34.20;;;18.10;;
59424;SDS011;45231;44.826;20.312;2022-12-20T15:34:28;34.97;;;19.05;;
59424;SDS011;45231;44.826;20.312;2022-12-20T15:36:55;35.15;;;19.98;;
59424;SDS011;45231;44.826;20.312;2022-12-20T15:39:24;34.58;;;20.67;;
59424;SDS011;45231;44.826;20.312;2022-12-20T15:41:50;34.20;;;19.63;;
59424;SDS011;45231;44.826;20.312;2022-12-20T15:44:21;36.58;;;21.35;;
59424;SDS011;45231;44.826;20.312;2022-12-20T15:46:49;35.00;;;19.55;;
59424;SDS011;45231;44.826;20.312;2022-12-20T15:49:16;35.05;;;19.10;;
59424;SDS011;45231;44.826;20.312;2022-12-20T15:54:11;31.02;;;17.42;;
59424;SDS011;45231;44.826;20.312;2022-12-20T15:56:40;31.35;;;17.60;;
59424;SDS011;45231;44.826;20.312;2022-12-20T15:59:06;33.92;;;19.17;;
59424;SDS011;45231;44.826;20.312;2022-12-20T16:01:36;31.30;;;17.23;;
59424;SDS011;45231;44.826;20.312;2022-12-20T16:04:03;44.00;;;20.60;;
59424;SDS011;45231;44.826;20.312;2022-12-20T16:06:30;43.08;;;23.10;;
59424;SDS011;45231;44.826;20.312;2022-12-20T16:08:56;42.50;;;24.88;;
59424;SDS011;45231;44.826;20.312;2022-12-20T16:13:49;62.17;;;36.95;;
59424;SDS011;45231;44.826;20.312;2022-12-20T16:16:16;79.47;;;48.72;;
59424;SDS011;45231;44.826;20.312;2022-12-20T16:21:18;66.13;;;39.85;;
59424;SDS011;45231;44.826;20.312;2022-12-20T16:23:48;73.30;;;42.58;;
59424;SDS011;45231;44.826;20.312;2022-12-20T16:26:18;58.30;;;32.30;;
59424;SDS011;45231;44.826;20.312;2022-12-20T16:28:47;61.15;;;35.95;;
59424;SDS011;45231;44.826;20.312;2022-12-20T16:31:20;53.97;;;29.80;;